createdAt,value
2022-10-06T00:00:39.637Z,15.74
2022-10-06T00:03:06.591Z,15.80
2022-10-06T00:05:33.847Z,15.77
2022-10-06T00:08:01.591Z,15.77
2022-10-06T00:10:29.482Z,15.78
2022-10-06T00:12:56.781Z,15.87
2022-10-06T00:15:27.825Z,15.81
2022-10-06T00:17:55.820Z,15.77
2022-10-06T00:20:23.492Z,15.84
2022-10-06T00:22:50.455Z,15.84
2022-10-06T00:25:21.175Z,15.84
2022-10-06T00:27:49.855Z,15.84
2022-10-06T00:30:19.678Z,15.82
2022-10-06T00:32:52.502Z,15.78
2022-10-06T00:35:20.398Z,15.85
2022-10-06T00:37:47.480Z,15.87
2022-10-06T00:40:14.299Z,15.83
2022-10-06T00:42:55.899Z,15.80
2022-10-06T00:45:41.585Z,15.87
2022-10-06T00:48:22.314Z,15.86
2022-10-06T00:50:49.469Z,15.87
2022-10-06T00:53:17.055Z,15.84
2022-10-06T00:55:43.971Z,15.80
2022-10-06T00:58:13.018Z,15.81
2022-10-06T01:00:43.099Z,15.74
2022-10-06T01:03:15.537Z,15.87
2022-10-06T01:05:46.699Z,15.78
2022-10-06T01:08:14.487Z,15.80
2022-10-06T01:10:41.313Z,15.87
2022-10-06T01:13:10.587Z,15.86
2022-10-06T01:15:57.113Z,15.95
2022-10-06T01:18:27.251Z,15.90
2022-10-06T01:21:05.164Z,15.88
2022-10-06T01:23:33.436Z,15.91
2022-10-06T01:26:03.545Z,15.96
2022-10-06T01:28:31.047Z,16.13
2022-10-06T01:31:00.927Z,16.10
2022-10-06T01:33:29.819Z,16.11
2022-10-06T01:35:56.998Z,16.16
2022-10-06T01:38:24.879Z,16.19
2022-10-06T01:40:53.521Z,16.18
2022-10-06T01:43:20.400Z,16.12
2022-10-06T01:45:56.216Z,16.15
2022-10-06T01:48:24.213Z,16.14
2022-10-06T01:50:51.218Z,16.18
2022-10-06T01:53:18.455Z,16.18
2022-10-06T01:55:45.173Z,16.17
2022-10-06T01:58:12.522Z,16.08
2022-10-06T02:00:40.005Z,16.15
2022-10-06T02:03:07.583Z,16.10
2022-10-06T02:05:35.095Z,16.03
2022-10-06T02:08:02.668Z,15.99
2022-10-06T02:10:29.448Z,15.90
2022-10-06T02:12:57.113Z,15.90
2022-10-06T02:15:24.258Z,15.71
2022-10-06T02:17:51.056Z,15.74
2022-10-06T02:20:17.864Z,15.71
2022-10-06T02:22:44.675Z,15.59
2022-10-06T02:25:12.350Z,15.58
2022-10-06T02:27:39.433Z,15.61
2022-10-06T02:30:07.637Z,15.44
2022-10-06T02:32:39.743Z,15.46
2022-10-06T02:35:07.274Z,15.47
2022-10-06T02:37:34.282Z,15.37
2022-10-06T02:40:01.321Z,15.31
2022-10-06T02:42:28.223Z,15.24
2022-10-06T02:44:54.918Z,15.19
2022-10-06T02:47:22.710Z,15.15
2022-10-06T02:49:49.397Z,15.06
2022-10-06T02:52:16.091Z,15.09
2022-10-06T02:54:42.760Z,15.00
2022-10-06T02:57:09.536Z,14.95
2022-10-06T02:59:36.540Z,14.94
2022-10-06T03:02:03.811Z,14.89
2022-10-06T03:04:30.776Z,14.78
2022-10-06T03:06:57.452Z,14.81
2022-10-06T03:09:24.253Z,14.79
2022-10-06T03:12:05.957Z,14.66
2022-10-06T03:14:33.238Z,14.62
2022-10-06T03:17:01.954Z,14.73
2022-10-06T03:19:28.619Z,14.68
2022-10-06T03:21:55.372Z,14.67
2022-10-06T03:24:22.064Z,14.67
2022-10-06T03:26:48.802Z,14.53
2022-10-06T03:29:16.319Z,14.49
2022-10-06T03:31:43.565Z,14.52
2022-10-06T03:34:10.549Z,14.53
2022-10-06T03:36:37.263Z,14.51
2022-10-06T03:39:05.801Z,14.47
2022-10-06T03:41:35.891Z,14.51
2022-10-06T03:44:03.694Z,14.44
2022-10-06T03:46:32.888Z,14.42
2022-10-06T03:49:01.561Z,14.45
2022-10-06T03:51:37.441Z,14.41
2022-10-06T03:54:04.753Z,14.47
2022-10-06T03:56:36.467Z,14.37
2022-10-06T03:59:05.863Z,14.39
2022-10-06T04:01:37.935Z,14.32
2022-10-06T04:04:05.586Z,14.36
2022-10-06T04:06:34.627Z,14.32
2022-10-06T04:09:02.205Z,14.33
2022-10-06T04:11:31.458Z,14.37
2022-10-06T04:14:04.289Z,14.37
2022-10-06T04:16:33.376Z,14.25
2022-10-06T04:19:05.894Z,14.26
2022-10-06T04:21:36.429Z,14.25
2022-10-06T04:24:04.326Z,14.20
2022-10-06T04:26:35.814Z,14.19
2022-10-06T04:29:02.667Z,14.19
2022-10-06T04:31:32.914Z,14.14
2022-10-06T04:34:00.663Z,14.10
2022-10-06T04:36:38.424Z,14.01
2022-10-06T04:39:05.489Z,14.00
2022-10-06T04:41:35.520Z,13.93
2022-10-06T04:44:03.388Z,13.86
2022-10-06T04:46:42.727Z,13.79
2022-10-06T04:49:16.226Z,13.82
2022-10-06T04:51:46.538Z,13.75
2022-10-06T04:54:13.241Z,13.67
2022-10-06T04:56:40.019Z,13.63
2022-10-06T04:59:06.798Z,13.65
2022-10-06T05:01:36.052Z,13.61
2022-10-06T05:04:04.544Z,13.58
2022-10-06T05:06:39.776Z,13.54
2022-10-06T05:09:12.216Z,13.53
2022-10-06T05:11:39.342Z,13.45
2022-10-06T05:14:06.226Z,13.46
2022-10-06T05:16:33.186Z,13.46
2022-10-06T05:19:00.123Z,13.44
2022-10-06T05:21:29.973Z,13.51
2022-10-06T05:23:57.260Z,13.59
2022-10-06T05:26:27.013Z,13.56
2022-10-06T05:28:53.676Z,13.62
2022-10-06T05:31:27.075Z,13.64
2022-10-06T05:33:55.162Z,13.64
2022-10-06T05:36:24.308Z,13.64
2022-10-06T05:38:51.016Z,13.67
2022-10-06T05:41:28.874Z,13.59
2022-10-06T05:43:55.698Z,13.63
2022-10-06T05:46:25.343Z,13.53
2022-10-06T05:48:57.142Z,13.61
2022-10-06T05:51:30.999Z,13.56
2022-10-06T05:53:59.005Z,13.54
2022-10-06T05:56:36.948Z,13.60
2022-10-06T05:59:04.553Z,13.55
2022-10-06T06:01:36.891Z,13.58
2022-10-06T06:04:06.709Z,13.62
2022-10-06T06:06:36.565Z,13.70
2022-10-06T06:09:09.829Z,13.76
2022-10-06T06:11:39.423Z,13.75
2022-10-06T06:14:11.651Z,13.79
2022-10-06T06:16:40.377Z,13.74
2022-10-06T06:19:08.882Z,13.76
2022-10-06T06:21:36.169Z,13.71
2022-10-06T06:24:04.141Z,13.76
2022-10-06T06:26:33.795Z,13.76
2022-10-06T06:29:05.237Z,13.74
2022-10-06T06:31:37.226Z,13.75
2022-10-06T06:34:06.755Z,13.88
2022-10-06T06:36:40.801Z,13.86
2022-10-06T06:39:10.564Z,13.94
2022-10-06T06:41:39.490Z,13.93
2022-10-06T06:44:08.447Z,13.93
2022-10-06T06:49:07.146Z,13.93
2022-10-06T06:51:37.207Z,13.97
2022-10-06T06:54:05.010Z,14.08
2022-10-06T06:56:35.193Z,13.99
2022-10-06T06:59:10.863Z,14.09
2022-10-06T07:01:44.365Z,14.06
2022-10-06T07:04:13.238Z,14.09
2022-10-06T07:06:40.990Z,14.15
2022-10-06T07:09:08.582Z,14.15
2022-10-06T07:11:38.048Z,14.15
2022-10-06T07:14:10.054Z,14.21
2022-10-06T07:16:55.348Z,14.17
2022-10-06T07:19:40.628Z,14.15
2022-10-06T07:22:32.240Z,14.28
2022-10-06T07:25:07.951Z,14.22
2022-10-06T07:27:46.948Z,14.36
2022-10-06T07:30:22.543Z,14.38
2022-10-06T07:32:50.823Z,14.41
2022-10-06T07:35:20.081Z,14.39
2022-10-06T07:37:47.129Z,14.53
2022-10-06T07:40:14.895Z,14.51
2022-10-06T07:42:48.273Z,14.66
2022-10-06T07:45:38.491Z,14.65
2022-10-06T07:48:14.472Z,14.72
2022-10-06T07:50:42.911Z,14.65
2022-10-06T07:53:09.786Z,14.77
2022-10-06T07:55:39.713Z,14.77
2022-10-06T07:58:20.686Z,14.84
2022-10-06T08:00:48.803Z,15.03
2022-10-06T08:03:18.467Z,15.02
2022-10-06T08:05:46.169Z,14.94
2022-10-06T08:08:14.808Z,15.13
2022-10-06T08:10:42.395Z,15.18
2022-10-06T08:13:10.405Z,15.31
2022-10-06T08:15:37.300Z,15.38
2022-10-06T08:18:12.173Z,15.38
2022-10-06T08:20:48.204Z,15.55
2022-10-06T08:23:15.006Z,15.44
2022-10-06T08:25:50.261Z,15.57
2022-10-06T08:28:17.162Z,15.56
2022-10-06T08:30:43.908Z,15.70
2022-10-06T08:33:10.601Z,15.77
2022-10-06T08:35:39.351Z,15.96
2022-10-06T08:38:06.381Z,15.89
2022-10-06T08:40:34.073Z,16.06
2022-10-06T08:43:02.715Z,16.15
2022-10-06T08:45:43.320Z,16.20
2022-10-06T08:48:18.815Z,16.33
2022-10-06T08:51:09.222Z,16.66
2022-10-06T08:53:46.897Z,17.03
2022-10-06T08:56:19.507Z,17.14
2022-10-06T08:58:53.918Z,17.66
2022-10-06T09:01:26.434Z,18.27
2022-10-06T09:04:01.549Z,18.42
2022-10-06T09:07:12.237Z,18.58
2022-10-06T09:09:54.889Z,18.33
2022-10-06T09:12:26.123Z,18.63
2022-10-06T09:15:13.176Z,18.37
2022-10-06T09:17:55.188Z,18.26
2022-10-06T09:20:51.053Z,18.63
2022-10-06T09:23:38.609Z,18.53
2022-10-06T09:26:12.823Z,18.48
2022-10-06T09:28:40.194Z,18.59
2022-10-06T09:31:18.325Z,18.68
2022-10-06T09:33:45.806Z,18.76
2022-10-06T09:36:12.770Z,18.80
2022-10-06T09:38:56.744Z,18.63
2022-10-06T09:41:50.001Z,18.10
2022-10-06T09:44:29.382Z,18.35
2022-10-06T09:46:56.149Z,17.80
2022-10-06T09:49:24.378Z,18.70
2022-10-06T09:52:18.388Z,18.30
2022-10-06T09:54:45.258Z,18.86
2022-10-06T09:57:20.004Z,18.95
2022-10-06T09:59:48.036Z,19.15
2022-10-06T10:02:41.884Z,19.11
2022-10-06T10:05:20.918Z,19.14
2022-10-06T10:08:01.456Z,19.42
2022-10-06T10:10:28.134Z,19.11
2022-10-06T10:12:57.156Z,18.59
2022-10-06T10:15:40.465Z,18.77
2022-10-06T10:18:14.658Z,18.62
2022-10-06T10:20:55.866Z,18.58
2022-10-06T10:23:40.689Z,18.25
2022-10-06T10:26:10.360Z,18.23
2022-10-06T10:28:56.039Z,18.21
2022-10-06T10:31:50.245Z,18.27
2022-10-06T10:34:35.308Z,18.36
2022-10-06T10:37:12.246Z,18.17
2022-10-06T10:40:02.164Z,18.38
2022-10-06T10:42:45.314Z,19.03
2022-10-06T10:45:23.076Z,18.71
2022-10-06T10:47:50.301Z,19.26
2022-10-06T10:50:24.862Z,19.10
2022-10-06T10:52:56.306Z,18.37
2022-10-06T10:55:41.751Z,18.68
2022-10-06T10:58:20.071Z,19.73
2022-10-06T11:00:53.355Z,20.01
2022-10-06T11:03:20.200Z,19.22
2022-10-06T11:06:12.442Z,18.85
2022-10-06T11:08:59.760Z,19.38
2022-10-06T11:11:54.279Z,19.08
2022-10-06T11:14:49.189Z,18.59
2022-10-06T11:17:25.592Z,18.20
2022-10-06T11:20:08.798Z,17.78
2022-10-06T11:22:41.617Z,18.54
2022-10-06T11:25:29.090Z,19.83
2022-10-06T11:28:20.083Z,21.20
2022-10-06T11:31:36.817Z,19.87
2022-10-06T11:34:06.449Z,19.74
2022-10-06T11:36:55.011Z,19.60
2022-10-06T11:39:23.277Z,19.41
2022-10-06T11:42:03.551Z,20.04
2022-10-06T11:44:41.385Z,19.02
2022-10-06T11:47:16.349Z,18.36
2022-10-06T11:49:53.899Z,18.98
2022-10-06T11:52:20.501Z,19.30
2022-10-06T11:54:52.290Z,19.56
2022-10-06T11:57:30.840Z,19.74
2022-10-06T12:00:16.044Z,19.41
2022-10-06T12:02:45.113Z,18.97
2022-10-06T12:08:01.799Z,18.13
2022-10-06T12:10:28.440Z,18.28
2022-10-06T12:13:21.221Z,18.29
2022-10-06T12:19:39.853Z,18.18
2022-10-06T12:22:28.022Z,18.23
2022-10-06T12:25:10.679Z,18.18
2022-10-06T12:28:05.189Z,18.00
2022-10-06T12:30:47.255Z,17.84
2022-10-06T12:33:18.437Z,17.67
2022-10-06T12:35:45.707Z,17.33
2022-10-06T12:38:30.890Z,17.36
2022-10-06T12:40:57.843Z,17.29
2022-10-06T12:43:26.638Z,17.31
2022-10-06T12:45:59.232Z,17.28
2022-10-06T12:49:04.432Z,17.36
2022-10-06T12:51:42.652Z,17.66
2022-10-06T12:54:19.408Z,17.92
2022-10-06T12:57:00.614Z,17.81
2022-10-06T12:59:34.817Z,17.46
2022-10-06T13:02:16.359Z,17.28
2022-10-06T13:04:45.649Z,17.24
2022-10-06T13:07:24.123Z,17.34
2022-10-06T13:09:54.369Z,17.56
2022-10-06T13:12:30.994Z,17.72
2022-10-06T13:15:13.018Z,17.64
2022-10-06T13:17:42.934Z,18.10
2022-10-06T13:20:22.502Z,18.29
2022-10-06T13:23:07.401Z,17.98
2022-10-06T13:25:52.778Z,18.23
2022-10-06T13:28:29.425Z,18.04
2022-10-06T13:33:35.102Z,18.00
2022-10-06T13:36:02.751Z,17.80
2022-10-06T13:38:34.841Z,17.91
2022-10-06T13:41:18.201Z,18.21
2022-10-06T13:43:48.682Z,18.35
2022-10-06T13:46:19.903Z,18.37
2022-10-06T13:49:03.317Z,17.98
2022-10-06T13:51:32.516Z,17.94
2022-10-06T13:54:03.804Z,17.82
2022-10-06T13:56:39.629Z,17.78
2022-10-06T13:59:28.868Z,17.80
2022-10-06T14:01:57.332Z,18.23
2022-10-06T14:04:24.289Z,18.78
2022-10-06T14:06:58.845Z,19.32
2022-10-06T14:09:29.277Z,19.40
2022-10-06T14:12:11.678Z,19.43
2022-10-06T14:14:39.161Z,19.76
2022-10-06T14:17:06.865Z,19.23
2022-10-06T14:19:40.666Z,19.28
2022-10-06T14:22:29.775Z,19.18
2022-10-06T14:24:56.508Z,18.92
2022-10-06T14:27:23.209Z,19.28
2022-10-06T14:29:49.810Z,19.13
2022-10-06T14:32:17.874Z,19.23
2022-10-06T14:34:45.176Z,19.17
2022-10-06T14:37:17.839Z,19.20
2022-10-06T14:39:45.906Z,18.73
2022-10-06T14:42:15.468Z,18.64
2022-10-06T14:44:43.244Z,18.35
2022-10-06T14:47:10.451Z,17.98
2022-10-06T14:49:37.856Z,17.51
2022-10-06T14:52:05.533Z,17.55
2022-10-06T14:54:34.416Z,17.29
2022-10-06T14:57:01.209Z,17.37
2022-10-06T14:59:28.078Z,17.24
2022-10-06T15:01:54.820Z,17.07
2022-10-06T15:04:25.213Z,17.22
2022-10-06T15:07:10.546Z,17.05
2022-10-06T15:09:37.395Z,17.04
2022-10-06T15:12:04.777Z,17.01
2022-10-06T15:14:31.961Z,16.90
2022-10-06T15:17:01.577Z,16.88
2022-10-06T15:19:28.705Z,16.82
2022-10-06T15:21:56.182Z,16.81
2022-10-06T15:24:22.856Z,16.71
2022-10-06T15:27:08.087Z,16.62
2022-10-06T15:29:35.565Z,16.65
2022-10-06T15:32:06.457Z,16.57
2022-10-06T15:34:34.572Z,16.56
2022-10-06T15:37:01.925Z,16.54
2022-10-06T15:39:34.744Z,16.39
2022-10-06T15:42:01.727Z,16.34
2022-10-06T15:44:32.831Z,16.28
2022-10-06T15:46:59.744Z,16.15
2022-10-06T15:49:32.860Z,16.12
2022-10-06T15:52:02.927Z,16.10
2022-10-06T15:54:33.790Z,16.07
2022-10-06T15:57:02.227Z,16.05
2022-10-06T15:59:32.577Z,15.91
2022-10-06T16:02:03.454Z,15.82
2022-10-06T16:04:39.131Z,15.81
2022-10-06T16:07:14.276Z,15.84
2022-10-06T16:09:43.808Z,15.75
2022-10-06T16:12:13.605Z,15.67
2022-10-06T16:14:40.353Z,15.57
2022-10-06T16:17:08.032Z,15.53
2022-10-06T16:19:36.963Z,15.39
2022-10-06T16:22:06.201Z,15.34
2022-10-06T16:24:33.454Z,15.26
2022-10-06T16:27:00.383Z,15.15
2022-10-06T16:29:28.207Z,15.04
2022-10-06T16:31:55.803Z,15.03
2022-10-06T16:34:22.689Z,14.96
2022-10-06T16:36:49.443Z,14.86
2022-10-06T16:39:18.791Z,14.73
2022-10-06T16:41:47.525Z,14.58
2022-10-06T16:44:14.744Z,14.34
2022-10-06T16:46:42.021Z,14.24
2022-10-06T16:49:09.690Z,14.10
2022-10-06T16:51:45.880Z,13.89
2022-10-06T16:54:14.676Z,13.84
2022-10-06T16:56:43.975Z,13.73
2022-10-06T16:59:21.940Z,13.55
2022-10-06T17:01:49.946Z,13.43
2022-10-06T17:04:19.302Z,13.41
2022-10-06T17:06:51.785Z,13.32
2022-10-06T17:09:24.427Z,13.33
2022-10-06T17:11:53.510Z,13.18
2022-10-06T17:14:21.590Z,13.14
2022-10-06T17:16:50.769Z,13.05
2022-10-06T17:19:19.431Z,12.93
2022-10-06T17:21:48.752Z,12.88
2022-10-06T17:24:18.425Z,12.82
2022-10-06T17:26:47.827Z,12.74
2022-10-06T17:29:18.772Z,12.62
2022-10-06T17:31:46.788Z,12.55
2022-10-06T17:34:23.579Z,12.45
2022-10-06T17:36:52.493Z,12.35
2022-10-06T17:39:21.666Z,12.59
2022-10-06T17:41:50.656Z,12.55
2022-10-06T17:44:21.379Z,12.50
2022-10-06T17:46:53.059Z,12.35
2022-10-06T17:49:20.950Z,12.40
2022-10-06T17:51:49.379Z,12.43
2022-10-06T17:54:20.805Z,12.18
2022-10-06T17:56:50.433Z,12.06
2022-10-06T17:59:28.688Z,12.03
2022-10-06T18:01:58.671Z,11.90
2022-10-06T18:04:26.547Z,11.85
2022-10-06T18:06:54.039Z,11.84
2022-10-06T18:09:22.720Z,11.73
2022-10-06T18:11:55.496Z,11.68
2022-10-06T18:14:26.190Z,11.62
2022-10-06T18:16:58.633Z,11.54
2022-10-06T18:19:45.535Z,11.44
2022-10-06T18:22:12.976Z,11.47
2022-10-06T18:24:40.311Z,11.33
2022-10-06T18:27:08.187Z,11.27
2022-10-06T18:29:37.190Z,11.23
2022-10-06T18:32:51.088Z,11.15
2022-10-06T18:37:39.725Z,11.17
2022-10-06T18:40:10.278Z,11.15
2022-10-06T18:42:38.918Z,11.15
2022-10-06T18:45:45.433Z,11.05
2022-10-06T18:48:30.559Z,10.94
2022-10-06T18:51:01.566Z,10.94
2022-10-06T18:53:31.057Z,10.97
2022-10-06T18:55:58.028Z,10.84
2022-10-06T18:58:24.729Z,10.82
2022-10-06T19:00:51.991Z,10.79
2022-10-06T19:03:18.839Z,10.84
2022-10-06T19:06:05.991Z,10.88
2022-10-06T19:08:52.928Z,10.92
2022-10-06T19:11:42.287Z,10.86
2022-10-06T19:14:09.516Z,10.73
2022-10-06T19:16:36.757Z,10.65
2022-10-06T19:19:10.350Z,10.72
2022-10-06T19:21:44.879Z,10.69
2022-10-06T19:24:15.070Z,10.80
2022-10-06T19:26:45.908Z,10.78
2022-10-06T19:29:13.996Z,10.80
2022-10-06T19:31:45.098Z,10.83
2022-10-06T19:34:17.190Z,10.79
2022-10-06T19:36:52.865Z,10.72
2022-10-06T19:39:23.498Z,10.68
2022-10-06T19:42:10.288Z,10.63
2022-10-06T19:44:42.797Z,10.60
2022-10-06T19:47:12.858Z,10.59
2022-10-06T19:49:39.833Z,10.50
2022-10-06T19:52:09.660Z,10.45
2022-10-06T19:54:37.253Z,10.43
2022-10-06T19:57:05.672Z,10.41
2022-10-06T19:59:33.096Z,10.35
2022-10-06T20:02:00.829Z,10.38
2022-10-06T20:04:27.542Z,10.22
2022-10-06T20:06:54.380Z,10.28
2022-10-06T20:09:23.037Z,10.26
2022-10-06T20:11:51.273Z,10.28
2022-10-06T20:14:21.225Z,10.16
2022-10-06T20:16:50.837Z,10.24
2022-10-06T20:19:18.839Z,10.22
2022-10-06T20:21:45.944Z,10.06
2022-10-06T20:24:22.678Z,10.12
2022-10-06T20:26:51.054Z,10.13
2022-10-06T20:29:21.855Z,10.04
2022-10-06T20:31:51.454Z,10.08
2022-10-06T20:34:21.455Z,10.00
2022-10-06T20:36:51.881Z,9.97
2022-10-06T20:39:40.714Z,9.93
2022-10-06T20:42:12.251Z,9.92
2022-10-06T20:44:42.250Z,9.89
2022-10-06T20:47:10.436Z,9.81
2022-10-06T20:49:37.867Z,9.83
2022-10-06T20:52:05.785Z,9.86
2022-10-06T20:54:35.052Z,9.92
2022-10-06T20:57:04.439Z,9.81
2022-10-06T20:59:31.743Z,9.71
2022-10-06T21:02:02.652Z,9.79
2022-10-06T21:04:30.333Z,9.82
2022-10-06T21:06:57.611Z,9.71
2022-10-06T21:09:24.833Z,9.79
2022-10-06T21:11:52.185Z,9.78
2022-10-06T21:14:19.002Z,9.71
2022-10-06T21:16:48.308Z,9.70
2022-10-06T21:19:16.989Z,9.57
2022-10-06T21:21:49.865Z,9.59
2022-10-06T21:24:16.838Z,9.66
2022-10-06T21:26:43.994Z,9.59
2022-10-06T21:29:15.511Z,9.60
2022-10-06T21:31:43.154Z,9.55
2022-10-06T21:34:10.616Z,9.53
2022-10-06T21:36:37.922Z,9.55
2022-10-06T21:39:05.766Z,9.59
2022-10-06T21:41:38.577Z,9.59
2022-10-06T21:44:16.992Z,9.46
2022-10-06T21:46:54.627Z,9.45
2022-10-06T21:49:23.474Z,9.48
2022-10-06T21:51:52.474Z,9.40
2022-10-06T21:54:20.430Z,9.41
2022-10-06T21:56:47.125Z,9.34
2022-10-06T21:59:14.209Z,9.30
2022-10-06T22:01:43.742Z,9.33
2022-10-06T22:04:12.848Z,9.36
2022-10-06T22:06:40.020Z,9.39
2022-10-06T22:09:08.675Z,9.29
2022-10-06T22:11:38.252Z,9.22
2022-10-06T22:14:08.777Z,9.21
2022-10-06T22:16:36.486Z,9.19
2022-10-06T22:19:05.531Z,9.11
2022-10-06T22:21:34.891Z,9.11
2022-10-06T22:24:13.987Z,9.11
2022-10-06T22:26:42.311Z,9.08
2022-10-06T22:29:11.789Z,9.08
2022-10-06T22:31:40.808Z,9.06
2022-10-06T22:34:09.415Z,9.15
2022-10-06T22:36:36.210Z,9.10
2022-10-06T22:39:03.578Z,9.10
2022-10-06T22:41:30.453Z,9.06
2022-10-06T22:43:58.641Z,9.01
2022-10-06T22:46:31.960Z,8.98
2022-10-06T22:48:59.393Z,9.02
2022-10-06T22:51:26.305Z,9.03
2022-10-06T22:53:57.862Z,8.97
2022-10-06T22:56:29.647Z,8.92
2022-10-06T22:58:59.722Z,8.87
2022-10-06T23:01:27.679Z,8.92
2022-10-06T23:03:55.544Z,8.81
2022-10-06T23:06:22.393Z,8.78
2022-10-06T23:08:49.129Z,8.73
2022-10-06T23:11:18.558Z,8.72
2022-10-06T23:13:46.122Z,8.71
2022-10-06T23:16:15.572Z,8.77
2022-10-06T23:18:43.760Z,8.79
2022-10-06T23:21:22.460Z,8.81
2022-10-06T23:23:54.236Z,8.72
2022-10-06T23:26:22.345Z,8.73
2022-10-06T23:28:55.151Z,8.77
2022-10-06T23:31:22.570Z,8.74
2022-10-06T23:33:49.427Z,8.78
2022-10-06T23:36:17.617Z,8.74
2022-10-06T23:38:45.400Z,8.76
2022-10-06T23:41:13.490Z,8.74
2022-10-06T23:43:40.353Z,8.68
2022-10-06T23:46:07.511Z,8.67
2022-10-06T23:48:34.460Z,8.64
2022-10-06T23:51:06.852Z,8.57
2022-10-06T23:53:34.498Z,8.57
2022-10-06T23:56:01.246Z,8.60
2022-10-06T23:58:28.657Z,8.61
